Terminal Aerodrome Forecast
Issued by NWS

Home | Current Version | Previous Version | Text Only | Print | Product List | Glossary On
Versions: 1 2 3 4 5 6 7 8 9 10 11 12 13 14 15 16 17 18 19
000
FTUS43 KDLH 011100
TAFBRD
TAF
KBRD 011120Z 0112/0212 VRB03KT 4SM BR SCT003
      TEMPO 0112/0113 1SM BR OVC002
     FM011300 VRB04KT P6SM SCT050
     FM011900 31004KT P6SM VCSH BKN050
     FM020100 08004KT P6SM SKC=

USA.gov is the U.S. government's official web portal to all federal, state and local government web resources and services.